sensor_id;sensor_type;location;lat;lon;timestamp;P1;durP1;ratioP1;P2;durP2;ratioP2
35606;SDS011;21729;58.392;15.656;2023-04-08T00:00:33;2.00;;;1.80;;
35606;SDS011;21729;58.392;15.656;2023-04-08T00:03:00;2.40;;;1.67;;
35606;SDS011;21729;58.392;15.656;2023-04-08T00:05:27;2.20;;;1.90;;
35606;SDS011;21729;58.392;15.656;2023-04-08T00:07:54;2.05;;;1.85;;
35606;SDS011;21729;58.392;15.656;2023-04-08T00:10:22;2.45;;;1.58;;
35606;SDS011;21729;58.392;15.656;2023-04-08T00:12:50;4.35;;;2.10;;
35606;SDS011;21729;58.392;15.656;2023-04-08T00:15:17;3.60;;;1.85;;
35606;SDS011;21729;58.392;15.656;2023-04-08T00:17:44;1.60;;;1.50;;
35606;SDS011;21729;58.392;15.656;2023-04-08T00:20:12;2.70;;;1.80;;
35606;SDS011;21729;58.392;15.656;2023-04-08T00:22:39;2.25;;;1.50;;
35606;SDS011;21729;58.392;15.656;2023-04-08T00:25:07;2.47;;;1.65;;
35606;SDS011;21729;58.392;15.656;2023-04-08T00:27:36;2.65;;;1.80;;
35606;SDS011;21729;58.392;15.656;2023-04-08T00:30:03;3.03;;;1.77;;
35606;SDS011;21729;58.392;15.656;2023-04-08T00:32:31;2.63;;;2.00;;
35606;SDS011;21729;58.392;15.656;2023-04-08T00:34:58;3.08;;;1.70;;
35606;SDS011;21729;58.392;15.656;2023-04-08T00:37:26;2.00;;;1.80;;
35606;SDS011;21729;58.392;15.656;2023-04-08T00:39:54;2.97;;;1.65;;
35606;SDS011;21729;58.392;15.656;2023-04-08T00:42:21;2.20;;;1.80;;
35606;SDS011;21729;58.392;15.656;2023-04-08T00:44:49;3.17;;;1.80;;
35606;SDS011;21729;58.392;15.656;2023-04-08T00:47:17;2.00;;;1.67;;
35606;SDS011;21729;58.392;15.656;2023-04-08T00:49:44;3.00;;;2.10;;
35606;SDS011;21729;58.392;15.656;2023-04-08T00:52:11;2.03;;;1.75;;
35606;SDS011;21729;58.392;15.656;2023-04-08T00:54:40;2.30;;;1.90;;
35606;SDS011;21729;58.392;15.656;2023-04-08T00:57:07;2.22;;;2.03;;
35606;SDS011;21729;58.392;15.656;2023-04-08T00:59:34;2.78;;;1.90;;
35606;SDS011;21729;58.392;15.656;2023-04-08T01:02:06;2.13;;;1.88;;
35606;SDS011;21729;58.392;15.656;2023-04-08T01:04:43;3.73;;;1.90;;
35606;SDS011;21729;58.392;15.656;2023-04-08T01:07:19;3.10;;;1.80;;
35606;SDS011;21729;58.392;15.656;2023-04-08T01:09:50;2.60;;;1.80;;
35606;SDS011;21729;58.392;15.656;2023-04-08T01:12:21;2.30;;;2.10;;
35606;SDS011;21729;58.392;15.656;2023-04-08T01:14:54;3.22;;;2.13;;
35606;SDS011;21729;58.392;15.656;2023-04-08T01:17:27;2.08;;;1.90;;
35606;SDS011;21729;58.392;15.656;2023-04-08T01:19:56;1.80;;;1.58;;
35606;SDS011;21729;58.392;15.656;2023-04-08T01:22:26;3.22;;;1.77;;
35606;SDS011;21729;58.392;15.656;2023-04-08T01:25:04;2.05;;;1.85;;
35606;SDS011;21729;58.392;15.656;2023-04-08T01:27:36;2.70;;;1.98;;
35606;SDS011;21729;58.392;15.656;2023-04-08T01:30:05;2.45;;;2.00;;
35606;SDS011;21729;58.392;15.656;2023-04-08T01:32:34;1.98;;;1.85;;
35606;SDS011;21729;58.392;15.656;2023-04-08T01:35:03;3.30;;;1.87;;
35606;SDS011;21729;58.392;15.656;2023-04-08T01:37:32;2.53;;;2.15;;
35606;SDS011;21729;58.392;15.656;2023-04-08T01:39:59;2.45;;;1.85;;
35606;SDS011;21729;58.392;15.656;2023-04-08T01:42:28;2.03;;;1.83;;
35606;SDS011;21729;58.392;15.656;2023-04-08T01:44:58;2.35;;;2.00;;
35606;SDS011;21729;58.392;15.656;2023-04-08T01:47:26;1.80;;;1.70;;
35606;SDS011;21729;58.392;15.656;2023-04-08T01:49:55;1.98;;;1.80;;
35606;SDS011;21729;58.392;15.656;2023-04-08T01:52:24;1.83;;;1.70;;
35606;SDS011;21729;58.392;15.656;2023-04-08T01:54:54;1.80;;;1.70;;
35606;SDS011;21729;58.392;15.656;2023-04-08T01:57:22;1.80;;;1.70;;
35606;SDS011;21729;58.392;15.656;2023-04-08T01:59:52;1.90;;;1.70;;
35606;SDS011;21729;58.392;15.656;2023-04-08T02:02:27;2.38;;;1.80;;
35606;SDS011;21729;58.392;15.656;2023-04-08T02:04:55;2.15;;;1.95;;
35606;SDS011;21729;58.392;15.656;2023-04-08T02:07:22;2.03;;;1.58;;
35606;SDS011;21729;58.392;15.656;2023-04-08T02:09:49;3.20;;;1.80;;
35606;SDS011;21729;58.392;15.656;2023-04-08T02:12:17;1.75;;;1.60;;
35606;SDS011;21729;58.392;15.656;2023-04-08T02:14:44;3.15;;;1.80;;
35606;SDS011;21729;58.392;15.656;2023-04-08T02:17:13;1.88;;;1.65;;
35606;SDS011;21729;58.392;15.656;2023-04-08T02:19:47;2.80;;;1.88;;
35606;SDS011;21729;58.392;15.656;2023-04-08T02:22:18;1.83;;;1.63;;
35606;SDS011;21729;58.392;15.656;2023-04-08T02:24:50;2.70;;;1.80;;
35606;SDS011;21729;58.392;15.656;2023-04-08T02:27:18;1.95;;;1.77;;
35606;SDS011;21729;58.392;15.656;2023-04-08T02:29:46;1.95;;;1.70;;
35606;SDS011;21729;58.392;15.656;2023-04-08T02:32:16;1.70;;;1.60;;
35606;SDS011;21729;58.392;15.656;2023-04-08T02:34:43;2.20;;;1.90;;
35606;SDS011;21729;58.392;15.656;2023-04-08T02:37:13;3.72;;;2.10;;
35606;SDS011;21729;58.392;15.656;2023-04-08T02:39:40;2.00;;;1.80;;
35606;SDS011;21729;58.392;15.656;2023-04-08T02:42:07;2.83;;;1.80;;
35606;SDS011;21729;58.392;15.656;2023-04-08T02:44:34;3.55;;;1.60;;
35606;SDS011;21729;58.392;15.656;2023-04-08T02:47:01;1.75;;;1.65;;
35606;SDS011;21729;58.392;15.656;2023-04-08T02:49:29;1.70;;;1.60;;
35606;SDS011;21729;58.392;15.656;2023-04-08T02:51:56;2.13;;;1.65;;
35606;SDS011;21729;58.392;15.656;2023-04-08T02:54:24;1.93;;;1.80;;
35606;SDS011;21729;58.392;15.656;2023-04-08T02:56:52;2.30;;;1.50;;
35606;SDS011;21729;58.392;15.656;2023-04-08T02:59:19;2.33;;;1.80;;
35606;SDS011;21729;58.392;15.656;2023-04-08T03:01:46;1.90;;;1.67;;
35606;SDS011;21729;58.392;15.656;2023-04-08T03:04:13;2.08;;;1.77;;
35606;SDS011;21729;58.392;15.656;2023-04-08T03:06:40;2.15;;;1.80;;
35606;SDS011;21729;58.392;15.656;2023-04-08T03:09:08;1.92;;;1.77;;
35606;SDS011;21729;58.392;15.656;2023-04-08T03:11:36;2.30;;;1.60;;
35606;SDS011;21729;58.392;15.656;2023-04-08T03:14:03;1.70;;;1.60;;
35606;SDS011;21729;58.392;15.656;2023-04-08T03:16:30;1.58;;;1.48;;
35606;SDS011;21729;58.392;15.656;2023-04-08T03:18:57;1.80;;;1.67;;
35606;SDS011;21729;58.392;15.656;2023-04-08T03:21:24;2.42;;;1.75;;
35606;SDS011;21729;58.392;15.656;2023-04-08T03:23:52;1.85;;;1.70;;
35606;SDS011;21729;58.392;15.656;2023-04-08T03:26:19;2.00;;;1.70;;
35606;SDS011;21729;58.392;15.656;2023-04-08T03:28:47;1.85;;;1.70;;
35606;SDS011;21729;58.392;15.656;2023-04-08T03:31:14;2.03;;;1.70;;
35606;SDS011;21729;58.392;15.656;2023-04-08T03:33:41;2.50;;;1.80;;
35606;SDS011;21729;58.392;15.656;2023-04-08T03:36:08;2.53;;;1.75;;
35606;SDS011;21729;58.392;15.656;2023-04-08T03:38:36;2.05;;;1.60;;
35606;SDS011;21729;58.392;15.656;2023-04-08T03:41:03;1.80;;;1.55;;
35606;SDS011;21729;58.392;15.656;2023-04-08T03:43:30;2.03;;;1.50;;
35606;SDS011;21729;58.392;15.656;2023-04-08T03:45:58;2.15;;;1.55;;
35606;SDS011;21729;58.392;15.656;2023-04-08T03:48:26;1.70;;;1.60;;
35606;SDS011;21729;58.392;15.656;2023-04-08T03:50:53;2.55;;;1.65;;
35606;SDS011;21729;58.392;15.656;2023-04-08T03:53:20;1.98;;;1.50;;
35606;SDS011;21729;58.392;15.656;2023-04-08T03:55:47;1.70;;;1.60;;
35606;SDS011;21729;58.392;15.656;2023-04-08T03:58:16;1.55;;;1.42;;
35606;SDS011;21729;58.392;15.656;2023-04-08T04:00:43;1.85;;;1.50;;
35606;SDS011;21729;58.392;15.656;2023-04-08T04:03:11;1.80;;;1.70;;
35606;SDS011;21729;58.392;15.656;2023-04-08T04:05:39;2.90;;;1.60;;
35606;SDS011;21729;58.392;15.656;2023-04-08T04:08:06;1.67;;;1.42;;
35606;SDS011;21729;58.392;15.656;2023-04-08T04:10:33;2.42;;;1.50;;
35606;SDS011;21729;58.392;15.656;2023-04-08T04:13:00;3.90;;;1.90;;
35606;SDS011;21729;58.392;15.656;2023-04-08T04:15:27;1.88;;;1.50;;
35606;SDS011;21729;58.392;15.656;2023-04-08T04:17:55;2.17;;;1.58;;
35606;SDS011;21729;58.392;15.656;2023-04-08T04:20:23;2.28;;;1.60;;
35606;SDS011;21729;58.392;15.656;2023-04-08T04:22:53;2.03;;;1.65;;
35606;SDS011;21729;58.392;15.656;2023-04-08T04:25:20;1.85;;;1.67;;
35606;SDS011;21729;58.392;15.656;2023-04-08T04:27:47;1.70;;;1.60;;
35606;SDS011;21729;58.392;15.656;2023-04-08T04:30:14;1.97;;;1.57;;
35606;SDS011;21729;58.392;15.656;2023-04-08T04:32:43;2.85;;;1.73;;
35606;SDS011;21729;58.392;15.656;2023-04-08T04:35:10;1.90;;;1.70;;
35606;SDS011;21729;58.392;15.656;2023-04-08T04:37:39;1.60;;;1.50;;
35606;SDS011;21729;58.392;15.656;2023-04-08T04:40:07;1.93;;;1.70;;
35606;SDS011;21729;58.392;15.656;2023-04-08T04:42:34;1.70;;;1.50;;
35606;SDS011;21729;58.392;15.656;2023-04-08T04:45:02;1.77;;;1.60;;
35606;SDS011;21729;58.392;15.656;2023-04-08T04:47:29;2.20;;;1.35;;
35606;SDS011;21729;58.392;15.656;2023-04-08T04:49:57;2.73;;;1.50;;
35606;SDS011;21729;58.392;15.656;2023-04-08T04:52:24;1.65;;;1.55;;
35606;SDS011;21729;58.392;15.656;2023-04-08T04:54:53;1.88;;;1.38;;
35606;SDS011;21729;58.392;15.656;2023-04-08T04:57:20;1.67;;;1.50;;
35606;SDS011;21729;58.392;15.656;2023-04-08T04:59:47;2.63;;;1.45;;
35606;SDS011;21729;58.392;15.656;2023-04-08T05:02:14;3.53;;;1.60;;
35606;SDS011;21729;58.392;15.656;2023-04-08T05:04:41;2.10;;;1.70;;
35606;SDS011;21729;58.392;15.656;2023-04-08T05:07:08;1.52;;;1.42;;
35606;SDS011;21729;58.392;15.656;2023-04-08T05:09:36;1.73;;;1.40;;
35606;SDS011;21729;58.392;15.656;2023-04-08T05:12:04;2.15;;;1.60;;
35606;SDS011;21729;58.392;15.656;2023-04-08T05:14:32;1.30;;;1.20;;
35606;SDS011;21729;58.392;15.656;2023-04-08T05:16:59;2.78;;;1.40;;
35606;SDS011;21729;58.392;15.656;2023-04-08T05:19:26;2.55;;;1.50;;
35606;SDS011;21729;58.392;15.656;2023-04-08T05:21:53;1.60;;;1.50;;
35606;SDS011;21729;58.392;15.656;2023-04-08T05:24:20;1.70;;;1.60;;
35606;SDS011;21729;58.392;15.656;2023-04-08T05:26:47;1.40;;;1.30;;
35606;SDS011;21729;58.392;15.656;2023-04-08T05:29:18;2.22;;;1.30;;
35606;SDS011;21729;58.392;15.656;2023-04-08T05:31:45;1.70;;;1.60;;
35606;SDS011;21729;58.392;15.656;2023-04-08T05:34:13;2.33;;;1.40;;
35606;SDS011;21729;58.392;15.656;2023-04-08T05:36:43;1.50;;;1.40;;
35606;SDS011;21729;58.392;15.656;2023-04-08T05:39:10;1.95;;;1.50;;
35606;SDS011;21729;58.392;15.656;2023-04-08T05:41:37;1.77;;;1.33;;
35606;SDS011;21729;58.392;15.656;2023-04-08T05:44:07;1.42;;;1.30;;
35606;SDS011;21729;58.392;15.656;2023-04-08T05:46:36;1.90;;;1.45;;
35606;SDS011;21729;58.392;15.656;2023-04-08T05:49:03;2.20;;;1.50;;
35606;SDS011;21729;58.392;15.656;2023-04-08T05:51:30;1.75;;;1.40;;
35606;SDS011;21729;58.392;15.656;2023-04-08T05:53:57;3.03;;;1.33;;
35606;SDS011;21729;58.392;15.656;2023-04-08T05:56:25;1.98;;;1.63;;
35606;SDS011;21729;58.392;15.656;2023-04-08T05:58:52;1.85;;;1.40;;
35606;SDS011;21729;58.392;15.656;2023-04-08T06:01:19;3.08;;;1.38;;
35606;SDS011;21729;58.392;15.656;2023-04-08T06:03:47;2.00;;;1.42;;
35606;SDS011;21729;58.392;15.656;2023-04-08T06:06:16;1.50;;;1.40;;
35606;SDS011;21729;58.392;15.656;2023-04-08T06:08:43;1.40;;;1.30;;
35606;SDS011;21729;58.392;15.656;2023-04-08T06:11:11;1.53;;;1.40;;
35606;SDS011;21729;58.392;15.656;2023-04-08T06:13:38;1.50;;;1.30;;
35606;SDS011;21729;58.392;15.656;2023-04-08T06:16:10;2.65;;;1.30;;
35606;SDS011;21729;58.392;15.656;2023-04-08T06:18:37;3.20;;;1.50;;
35606;SDS011;21729;58.392;15.656;2023-04-08T06:21:06;1.55;;;1.45;;
35606;SDS011;21729;58.392;15.656;2023-04-08T06:23:33;2.05;;;1.27;;
35606;SDS011;21729;58.392;15.656;2023-04-08T06:26:00;1.40;;;1.30;;
35606;SDS011;21729;58.392;15.656;2023-04-08T06:28:28;1.58;;;1.40;;
35606;SDS011;21729;58.392;15.656;2023-04-08T06:30:56;2.28;;;1.67;;
35606;SDS011;21729;58.392;15.656;2023-04-08T06:33:23;2.70;;;1.50;;
35606;SDS011;21729;58.392;15.656;2023-04-08T06:35:50;1.92;;;1.70;;
35606;SDS011;21729;58.392;15.656;2023-04-08T06:38:18;2.17;;;1.50;;
35606;SDS011;21729;58.392;15.656;2023-04-08T06:40:46;2.03;;;1.50;;
35606;SDS011;21729;58.392;15.656;2023-04-08T06:43:13;2.00;;;1.50;;
35606;SDS011;21729;58.392;15.656;2023-04-08T06:45:40;1.50;;;1.30;;
35606;SDS011;21729;58.392;15.656;2023-04-08T06:48:07;2.43;;;1.53;;
35606;SDS011;21729;58.392;15.656;2023-04-08T06:50:34;3.13;;;1.40;;
35606;SDS011;21729;58.392;15.656;2023-04-08T06:53:01;1.77;;;1.45;;
35606;SDS011;21729;58.392;15.656;2023-04-08T06:55:30;2.30;;;1.58;;
35606;SDS011;21729;58.392;15.656;2023-04-08T06:58:02;1.70;;;1.20;;
35606;SDS011;21729;58.392;15.656;2023-04-08T07:00:29;4.57;;;1.40;;
35606;SDS011;21729;58.392;15.656;2023-04-08T07:02:56;2.15;;;1.40;;
35606;SDS011;21729;58.392;15.656;2023-04-08T07:05:23;1.40;;;1.20;;
35606;SDS011;21729;58.392;15.656;2023-04-08T07:07:50;2.40;;;1.25;;
35606;SDS011;21729;58.392;15.656;2023-04-08T07:10:18;1.30;;;1.20;;
35606;SDS011;21729;58.392;15.656;2023-04-08T07:12:46;1.40;;;1.30;;
35606;SDS011;21729;58.392;15.656;2023-04-08T07:15:13;1.25;;;1.00;;
35606;SDS011;21729;58.392;15.656;2023-04-08T07:17:41;1.55;;;1.00;;
35606;SDS011;21729;58.392;15.656;2023-04-08T07:20:08;1.27;;;1.13;;
35606;SDS011;21729;58.392;15.656;2023-04-08T07:22:36;1.10;;;1.00;;
35606;SDS011;21729;58.392;15.656;2023-04-08T07:25:03;1.15;;;1.00;;
35606;SDS011;21729;58.392;15.656;2023-04-08T07:27:32;2.20;;;1.13;;
35606;SDS011;21729;58.392;15.656;2023-04-08T07:30:01;1.85;;;1.20;;
35606;SDS011;21729;58.392;15.656;2023-04-08T07:32:29;1.73;;;1.25;;
35606;SDS011;21729;58.392;15.656;2023-04-08T07:34:57;1.63;;;1.20;;
35606;SDS011;21729;58.392;15.656;2023-04-08T07:37:24;1.65;;;1.10;;
35606;SDS011;21729;58.392;15.656;2023-04-08T07:39:51;1.88;;;1.30;;
35606;SDS011;21729;58.392;15.656;2023-04-08T07:42:19;2.03;;;1.30;;
35606;SDS011;21729;58.392;15.656;2023-04-08T07:44:47;3.72;;;1.40;;
35606;SDS011;21729;58.392;15.656;2023-04-08T07:47:15;1.30;;;1.20;;
35606;SDS011;21729;58.392;15.656;2023-04-08T07:49:44;2.53;;;1.23;;
35606;SDS011;21729;58.392;15.656;2023-04-08T07:52:12;2.10;;;1.30;;
35606;SDS011;21729;58.392;15.656;2023-04-08T07:54:39;2.97;;;1.17;;
35606;SDS011;21729;58.392;15.656;2023-04-08T07:57:07;1.85;;;1.40;;
35606;SDS011;21729;58.392;15.656;2023-04-08T07:59:34;1.30;;;1.20;;
35606;SDS011;21729;58.392;15.656;2023-04-08T08:02:01;2.58;;;1.00;;
35606;SDS011;21729;58.392;15.656;2023-04-08T08:04:29;2.05;;;1.20;;
35606;SDS011;21729;58.392;15.656;2023-04-08T08:07:02;1.50;;;1.27;;
35606;SDS011;21729;58.392;15.656;2023-04-08T08:09:29;2.38;;;1.40;;
35606;SDS011;21729;58.392;15.656;2023-04-08T08:11:56;1.60;;;1.25;;
35606;SDS011;21729;58.392;15.656;2023-04-08T08:14:23;1.80;;;1.20;;
35606;SDS011;21729;58.392;15.656;2023-04-08T08:16:51;1.48;;;1.20;;
35606;SDS011;21729;58.392;15.656;2023-04-08T08:19:19;1.60;;;1.10;;
35606;SDS011;21729;58.392;15.656;2023-04-08T08:21:47;1.63;;;1.40;;
35606;SDS011;21729;58.392;15.656;2023-04-08T08:24:15;1.30;;;1.20;;
35606;SDS011;21729;58.392;15.656;2023-04-08T08:26:43;2.23;;;1.30;;
35606;SDS011;21729;58.392;15.656;2023-04-08T08:29:11;4.00;;;1.30;;
35606;SDS011;21729;58.392;15.656;2023-04-08T08:31:38;1.42;;;1.10;;
35606;SDS011;21729;58.392;15.656;2023-04-08T08:34:05;2.22;;;1.33;;
35606;SDS011;21729;58.392;15.656;2023-04-08T08:36:32;1.30;;;1.20;;
35606;SDS011;21729;58.392;15.656;2023-04-08T08:39:03;1.23;;;1.13;;
35606;SDS011;21729;58.392;15.656;2023-04-08T08:41:32;1.33;;;1.13;;
35606;SDS011;21729;58.392;15.656;2023-04-08T08:44:01;1.48;;;1.10;;
35606;SDS011;21729;58.392;15.656;2023-04-08T08:46:30;2.17;;;1.20;;
35606;SDS011;21729;58.392;15.656;2023-04-08T08:48:57;1.27;;;1.17;;
35606;SDS011;21729;58.392;15.656;2023-04-08T08:51:25;1.80;;;1.05;;
35606;SDS011;21729;58.392;15.656;2023-04-08T08:53:53;0.95;;;0.93;;
35606;SDS011;21729;58.392;15.656;2023-04-08T08:56:22;2.20;;;0.95;;
35606;SDS011;21729;58.392;15.656;2023-04-08T08:58:49;1.30;;;1.02;;
35606;SDS011;21729;58.392;15.656;2023-04-08T09:01:30;1.20;;;1.10;;
35606;SDS011;21729;58.392;15.656;2023-04-08T09:04:05;1.10;;;1.00;;
35606;SDS011;21729;58.392;15.656;2023-04-08T09:06:34;1.70;;;1.10;;
35606;SDS011;21729;58.392;15.656;2023-04-08T09:09:03;1.90;;;0.80;;
35606;SDS011;21729;58.392;15.656;2023-04-08T09:11:35;1.50;;;0.95;;
35606;SDS011;21729;58.392;15.656;2023-04-08T09:14:03;1.13;;;0.90;;
35606;SDS011;21729;58.392;15.656;2023-04-08T09:16:32;0.70;;;0.70;;
35606;SDS011;21729;58.392;15.656;2023-04-08T09:19:07;1.60;;;0.73;;
35606;SDS011;21729;58.392;15.656;2023-04-08T09:21:35;0.75;;;0.65;;
35606;SDS011;21729;58.392;15.656;2023-04-08T09:24:05;0.75;;;0.70;;
35606;SDS011;21729;58.392;15.656;2023-04-08T09:26:32;1.25;;;0.73;;
35606;SDS011;21729;58.392;15.656;2023-04-08T09:29:03;0.60;;;0.60;;
35606;SDS011;21729;58.392;15.656;2023-04-08T09:31:32;0.65;;;0.65;;
35606;SDS011;21729;58.392;15.656;2023-04-08T09:34:08;1.13;;;0.60;;
35606;SDS011;21729;58.392;15.656;2023-04-08T09:36:36;0.95;;;0.70;;
35606;SDS011;21729;58.392;15.656;2023-04-08T09:39:04;1.52;;;0.60;;
35606;SDS011;21729;58.392;15.656;2023-04-08T09:41:32;1.45;;;0.60;;
35606;SDS011;21729;58.392;15.656;2023-04-08T09:44:03;0.55;;;0.55;;
35606;SDS011;21729;58.392;15.656;2023-04-08T09:46:32;0.50;;;0.50;;
35606;SDS011;21729;58.392;15.656;2023-04-08T09:49:06;1.40;;;0.50;;
35606;SDS011;21729;58.392;15.656;2023-04-08T09:51:39;0.50;;;0.50;;
35606;SDS011;21729;58.392;15.656;2023-04-08T09:54:10;1.42;;;0.68;;
35606;SDS011;21729;58.392;15.656;2023-04-08T09:56:40;0.53;;;0.53;;
35606;SDS011;21729;58.392;15.656;2023-04-08T09:59:30;0.65;;;0.50;;
35606;SDS011;21729;58.392;15.656;2023-04-08T10:02:04;0.70;;;0.67;;
35606;SDS011;21729;58.392;15.656;2023-04-08T10:04:35;1.33;;;0.60;;
35606;SDS011;21729;58.392;15.656;2023-04-08T10:07:07;0.52;;;0.52;;
35606;SDS011;21729;58.392;15.656;2023-04-08T10:09:34;0.55;;;0.55;;
35606;SDS011;21729;58.392;15.656;2023-04-08T10:12:03;1.52;;;0.60;;
35606;SDS011;21729;58.392;15.656;2023-04-08T10:14:32;0.80;;;0.80;;
35606;SDS011;21729;58.392;15.656;2023-04-08T10:19:50;0.50;;;0.50;;
35606;SDS011;21729;58.392;15.656;2023-04-08T10:25:29;0.63;;;0.52;;
35606;SDS011;21729;58.392;15.656;2023-04-08T10:27:58;0.60;;;0.52;;
35606;SDS011;21729;58.392;15.656;2023-04-08T10:30:41;1.10;;;0.53;;
35606;SDS011;21729;58.392;15.656;2023-04-08T10:33:09;0.70;;;0.60;;
35606;SDS011;21729;58.392;15.656;2023-04-08T10:35:42;1.47;;;0.60;;
35606;SDS011;21729;58.392;15.656;2023-04-08T10:38:12;0.70;;;0.52;;
35606;SDS011;21729;58.392;15.656;2023-04-08T10:40:41;1.10;;;0.50;;
35606;SDS011;21729;58.392;15.656;2023-04-08T10:43:10;0.70;;;0.70;;
35606;SDS011;21729;58.392;15.656;2023-04-08T10:45:38;1.30;;;0.55;;
35606;SDS011;21729;58.392;15.656;2023-04-08T10:48:14;0.50;;;0.50;;
35606;SDS011;21729;58.392;15.656;2023-04-08T10:50:43;1.00;;;0.77;;
35606;SDS011;21729;58.392;15.656;2023-04-08T10:53:10;1.10;;;0.50;;
35606;SDS011;21729;58.392;15.656;2023-04-08T10:55:37;0.57;;;0.57;;
35606;SDS011;21729;58.392;15.656;2023-04-08T10:58:05;5.10;;;0.80;;
35606;SDS011;21729;58.392;15.656;2023-04-08T11:00:33;0.55;;;0.55;;
35606;SDS011;21729;58.392;15.656;2023-04-08T11:03:01;0.70;;;0.60;;
35606;SDS011;21729;58.392;15.656;2023-04-08T11:05:31;0.88;;;0.50;;
35606;SDS011;21729;58.392;15.656;2023-04-08T11:07:59;0.70;;;0.70;;
35606;SDS011;21729;58.392;15.656;2023-04-08T11:10:27;0.60;;;0.50;;
35606;SDS011;21729;58.392;15.656;2023-04-08T11:12:54;0.95;;;0.60;;
35606;SDS011;21729;58.392;15.656;2023-04-08T11:15:23;0.77;;;0.68;;
35606;SDS011;21729;58.392;15.656;2023-04-08T11:17:50;0.55;;;0.55;;
35606;SDS011;21729;58.392;15.656;2023-04-08T11:20:19;0.50;;;0.50;;
35606;SDS011;21729;58.392;15.656;2023-04-08T11:22:48;2.60;;;0.70;;
35606;SDS011;21729;58.392;15.656;2023-04-08T11:25:16;0.75;;;0.57;;
35606;SDS011;21729;58.392;15.656;2023-04-08T11:27:43;1.15;;;0.70;;
35606;SDS011;21729;58.392;15.656;2023-04-08T11:30:11;0.60;;;0.60;;
35606;SDS011;21729;58.392;15.656;2023-04-08T11:32:39;0.70;;;0.50;;
35606;SDS011;21729;58.392;15.656;2023-04-08T11:35:06;0.63;;;0.63;;
35606;SDS011;21729;58.392;15.656;2023-04-08T11:37:37;0.63;;;0.63;;
35606;SDS011;21729;58.392;15.656;2023-04-08T11:40:09;0.70;;;0.70;;
35606;SDS011;21729;58.392;15.656;2023-04-08T11:42:38;1.13;;;0.70;;
35606;SDS011;21729;58.392;15.656;2023-04-08T11:45:11;0.60;;;0.60;;
35606;SDS011;21729;58.392;15.656;2023-04-08T11:47:40;0.63;;;0.60;;
35606;SDS011;21729;58.392;15.656;2023-04-08T11:50:08;0.90;;;0.70;;
35606;SDS011;21729;58.392;15.656;2023-04-08T11:52:42;0.60;;;0.60;;
35606;SDS011;21729;58.392;15.656;2023-04-08T11:55:20;1.40;;;0.60;;
35606;SDS011;21729;58.392;15.656;2023-04-08T11:57:49;1.60;;;0.70;;
35606;SDS011;21729;58.392;15.656;2023-04-08T12:00:17;0.73;;;0.50;;
35606;SDS011;21729;58.392;15.656;2023-04-08T12:02:44;0.60;;;0.60;;
35606;SDS011;21729;58.392;15.656;2023-04-08T12:05:12;0.70;;;0.60;;
35606;SDS011;21729;58.392;15.656;2023-04-08T12:07:40;0.50;;;0.50;;
35606;SDS011;21729;58.392;15.656;2023-04-08T12:10:07;0.70;;;0.70;;
35606;SDS011;21729;58.392;15.656;2023-04-08T12:12:36;1.63;;;0.50;;
35606;SDS011;21729;58.392;15.656;2023-04-08T12:15:04;0.77;;;0.75;;
35606;SDS011;21729;58.392;15.656;2023-04-08T12:17:32;0.73;;;0.60;;
35606;SDS011;21729;58.392;15.656;2023-04-08T12:19:59;0.83;;;0.70;;
35606;SDS011;21729;58.392;15.656;2023-04-08T12:22:26;0.50;;;0.50;;
35606;SDS011;21729;58.392;15.656;2023-04-08T12:24:53;1.87;;;0.57;;
35606;SDS011;21729;58.392;15.656;2023-04-08T12:27:21;0.75;;;0.50;;
35606;SDS011;21729;58.392;15.656;2023-04-08T12:29:49;0.80;;;0.65;;
35606;SDS011;21729;58.392;15.656;2023-04-08T12:32:17;1.20;;;0.70;;
35606;SDS011;21729;58.392;15.656;2023-04-08T12:34:44;1.00;;;0.60;;
35606;SDS011;21729;58.392;15.656;2023-04-08T12:37:11;0.43;;;0.40;;
35606;SDS011;21729;58.392;15.656;2023-04-08T12:39:38;0.50;;;0.50;;
35606;SDS011;21729;58.392;15.656;2023-04-08T12:42:06;0.75;;;0.60;;
35606;SDS011;21729;58.392;15.656;2023-04-08T12:44:33;1.50;;;0.50;;
35606;SDS011;21729;58.392;15.656;2023-04-08T12:47:01;0.60;;;0.60;;
35606;SDS011;21729;58.392;15.656;2023-04-08T12:49:28;1.33;;;0.88;;
35606;SDS011;21729;58.392;15.656;2023-04-08T12:51:55;0.60;;;0.60;;
35606;SDS011;21729;58.392;15.656;2023-04-08T12:54:23;0.40;;;0.40;;
35606;SDS011;21729;58.392;15.656;2023-04-08T12:56:50;0.57;;;0.55;;
35606;SDS011;21729;58.392;15.656;2023-04-08T12:59:17;0.52;;;0.52;;
35606;SDS011;21729;58.392;15.656;2023-04-08T13:01:44;0.60;;;0.60;;
35606;SDS011;21729;58.392;15.656;2023-04-08T13:04:12;0.57;;;0.57;;
35606;SDS011;21729;58.392;15.656;2023-04-08T13:06:39;1.27;;;0.40;;
35606;SDS011;21729;58.392;15.656;2023-04-08T13:09:07;0.50;;;0.50;;
35606;SDS011;21729;58.392;15.656;2023-04-08T13:11:34;0.70;;;0.68;;
35606;SDS011;21729;58.392;15.656;2023-04-08T13:14:01;0.98;;;0.40;;
35606;SDS011;21729;58.392;15.656;2023-04-08T13:16:28;0.57;;;0.50;;
35606;SDS011;21729;58.392;15.656;2023-04-08T13:18:55;0.60;;;0.60;;
35606;SDS011;21729;58.392;15.656;2023-04-08T13:21:24;0.60;;;0.60;;
35606;SDS011;21729;58.392;15.656;2023-04-08T13:23:51;0.75;;;0.60;;
35606;SDS011;21729;58.392;15.656;2023-04-08T13:26:18;0.85;;;0.52;;
35606;SDS011;21729;58.392;15.656;2023-04-08T13:28:46;1.15;;;0.57;;
35606;SDS011;21729;58.392;15.656;2023-04-08T13:31:13;0.50;;;0.50;;
35606;SDS011;21729;58.392;15.656;2023-04-08T13:33:40;0.70;;;0.70;;
35606;SDS011;21729;58.392;15.656;2023-04-08T13:36:07;0.77;;;0.77;;
35606;SDS011;21729;58.392;15.656;2023-04-08T13:38:36;1.50;;;0.80;;
35606;SDS011;21729;58.392;15.656;2023-04-08T13:41:03;5.00;;;0.88;;
35606;SDS011;21729;58.392;15.656;2023-04-08T13:43:30;2.97;;;0.63;;
35606;SDS011;21729;58.392;15.656;2023-04-08T13:45:57;0.45;;;0.45;;
35606;SDS011;21729;58.392;15.656;2023-04-08T13:48:24;1.20;;;0.65;;
35606;SDS011;21729;58.392;15.656;2023-04-08T13:50:52;0.50;;;0.50;;
35606;SDS011;21729;58.392;15.656;2023-04-08T13:53:19;0.90;;;0.60;;
35606;SDS011;21729;58.392;15.656;2023-04-08T13:55:47;0.60;;;0.60;;
35606;SDS011;21729;58.392;15.656;2023-04-08T13:58:19;1.05;;;0.68;;
35606;SDS011;21729;58.392;15.656;2023-04-08T14:00:46;0.90;;;0.60;;
35606;SDS011;21729;58.392;15.656;2023-04-08T14:03:15;1.15;;;0.80;;
35606;SDS011;21729;58.392;15.656;2023-04-08T14:05:42;0.90;;;0.70;;
35606;SDS011;21729;58.392;15.656;2023-04-08T14:08:10;1.05;;;0.60;;
35606;SDS011;21729;58.392;15.656;2023-04-08T14:10:37;1.40;;;0.50;;
35606;SDS011;21729;58.392;15.656;2023-04-08T14:13:07;9.95;;;1.20;;
35606;SDS011;21729;58.392;15.656;2023-04-08T14:15:34;1.20;;;1.10;;
35606;SDS011;21729;58.392;15.656;2023-04-08T14:18:01;1.10;;;0.90;;
35606;SDS011;21729;58.392;15.656;2023-04-08T14:20:28;0.70;;;0.70;;
35606;SDS011;21729;58.392;15.656;2023-04-08T14:22:56;0.60;;;0.60;;
35606;SDS011;21729;58.392;15.656;2023-04-08T14:25:23;1.27;;;0.47;;
35606;SDS011;21729;58.392;15.656;2023-04-08T14:27:50;1.48;;;0.90;;
35606;SDS011;21729;58.392;15.656;2023-04-08T14:30:19;0.60;;;0.60;;
35606;SDS011;21729;58.392;15.656;2023-04-08T14:32:46;0.57;;;0.50;;
35606;SDS011;21729;58.392;15.656;2023-04-08T14:35:13;1.25;;;0.75;;
35606;SDS011;21729;58.392;15.656;2023-04-08T14:37:40;1.67;;;0.70;;
35606;SDS011;21729;58.392;15.656;2023-04-08T14:40:08;0.50;;;0.50;;
35606;SDS011;21729;58.392;15.656;2023-04-08T14:42:36;1.80;;;0.50;;
35606;SDS011;21729;58.392;15.656;2023-04-08T14:45:03;0.77;;;0.63;;